Time;durP1;ratioP1;P1;durP2;ratioP2;P2;SDS_P1;SDS_P2;PMS_P1;PMS_P2;Temp;Humidity;BMP_temperature;BMP_pressure;BME280_temperature;BME280_humidity;BME280_pressure;Samples;Min_cycle;Max_cycle;Signal;HPM_P1;HPM_P2
2022/11/18 00:01:06;;;;;;;8.60;2.25;;;9.20;99.90;;;;;;5056212;28;20033;-62
2022/11/18 00:03:32;;;;;;;7.85;2.05;;;9.20;99.90;;;;;;5039301;28;20412;-62
2022/11/18 00:05:57;;;;;;;8.07;2.58;;;9.30;99.90;;;;;;5056865;28;20033;-62
2022/11/18 00:08:24;;;;;;;6.93;2.30;;;9.30;99.90;;;;;;5055709;28;20084;-63
2022/11/18 00:10:50;;;;;;;5.50;2.15;;;9.30;99.90;;;;;;5057442;28;20052;-62
2022/11/18 00:16:04;;;;;;;4.60;1.90;;;9.40;99.90;;;;;;5056702;28;20064;-62
2022/11/18 00:18:31;;;;;;;6.53;1.73;;;9.50;99.90;;;;;;5056701;28;20087;-61
2022/11/18 00:21:05;;;;;;;5.78;2.08;;;9.50;99.90;;;;;;5055887;28;20089;-62
2022/11/18 00:23:31;;;;;;;3.58;2.00;;;9.50;99.90;;;;;;5055941;28;20035;-62
2022/11/18 00:26:04;;;;;;;4.57;1.60;;;9.60;99.90;;;;;;5057267;28;20029;-62
2022/11/18 00:28:30;;;;;;;;;;;9.60;99.90;;;;;;5056240;28;20061;-62
2022/11/18 00:31:01;;;;;;;4.38;1.55;;;9.60;99.90;;;;;;5056581;28;19913;-62
2022/11/18 00:33:27;;;;;;;2.92;1.45;;;9.70;99.90;;;;;;5055788;28;20052;-61
2022/11/18 00:35:54;;;;;;;5.97;1.75;;;9.70;99.90;;;;;;5055822;28;20029;-62
2022/11/18 00:38:20;;;;;;;3.95;1.42;;;9.70;99.90;;;;;;5056567;28;20032;-62
2022/11/18 00:40:45;;;;;;;2.45;1.20;;;9.60;99.90;;;;;;5056598;28;20029;-62
2022/11/18 00:43:11;;;;;;;5.00;1.60;;;9.60;99.90;;;;;;5039081;28;20029;-62
2022/11/18 00:45:37;;;;;;;3.58;1.30;;;9.60;99.90;;;;;;5057113;28;20095;-63
2022/11/18 00:48:03;;;;;;;5.80;1.38;;;9.60;99.90;;;;;;5039054;28;20063;-61
2022/11/18 00:50:29;;;;;;;4.18;1.38;;;9.60;99.90;;;;;;5056526;28;20040;-62
2022/11/18 00:52:55;;;;;;;2.85;1.60;;;9.50;99.90;;;;;;5055669;28;20119;-62
2022/11/18 00:55:20;;;;;;;3.55;1.27;;;9.50;99.90;;;;;;5055747;28;20029;-62
2022/11/18 00:57:46;;;;;;;4.32;1.60;;;9.50;99.90;;;;;;5055510;28;20025;-62
2022/11/18 01:00:12;;;;;;;4.57;1.88;;;9.50;99.90;;;;;;5039088;28;20025;-62
2022/11/18 01:02:38;;;;;;;4.25;1.50;;;9.50;99.90;;;;;;5039004;28;20067;-62
2022/11/18 01:05:04;;;;;;;2.45;1.25;;;9.60;99.90;;;;;;5039022;28;20045;-62
2022/11/18 01:07:30;;;;;;;3.30;1.70;;;9.70;99.90;;;;;;5056270;28;20044;-62
2022/11/18 01:09:56;;;;;;;3.55;1.50;;;9.60;99.90;;;;;;5056286;28;20028;-62
2022/11/18 01:15:07;;;;;;;3.58;1.55;;;9.60;99.90;;;;;;5056248;28;20033;-63
2022/11/18 01:17:33;;;;;;;2.88;1.40;;;9.60;99.90;;;;;;5056060;28;20045;-61
2022/11/18 01:19:59;;;;;;;3.42;1.52;;;9.60;99.90;;;;;;5058054;28;20021;-63
2022/11/18 01:22:24;;;;;;;3.17;1.20;;;9.60;99.90;;;;;;5060036;28;20059;-61
2022/11/18 01:24:50;;;;;;;4.20;1.40;;;9.60;99.90;;;;;;5026078;28;20067;-61
2022/11/18 01:27:16;;;;;;;6.13;1.45;;;9.70;99.90;;;;;;5059889;28;20033;-62
2022/11/18 01:29:42;;;;;;;4.80;2.05;;;9.70;99.90;;;;;;5042554;28;20045;-62
2022/11/18 01:32:08;;;;;;;3.70;1.27;;;9.70;99.90;;;;;;5059680;28;20044;-62
2022/11/18 01:34:33;;;;;;;3.13;1.40;;;9.60;99.90;;;;;;5059795;28;20308;-62
2022/11/18 01:36:59;;;;;;;4.90;1.65;;;9.60;99.90;;;;;;5058896;28;20033;-62
2022/11/18 01:39:25;;;;;;;5.35;2.10;;;9.60;99.90;;;;;;5059073;28;20040;-62
2022/11/18 01:41:51;;;;;;;5.55;1.65;;;9.50;99.90;;;;;;5058771;28;20250;-62
2022/11/18 01:44:54;;;;;;;3.30;1.35;;;9.40;99.90;;;;;;5042175;28;20037;-61
2022/11/18 01:47:21;;;;;;;3.03;1.58;;;9.40;99.90;;;;;;5059498;28;20045;-62
2022/11/18 01:49:47;;;;;;;4.75;1.45;;;9.40;99.90;;;;;;5059308;28;20032;-62
2022/11/18 01:52:13;;;;;;;5.13;1.83;;;9.40;99.90;;;;;;5059821;28;20106;-62
2022/11/18 01:54:43;;;;;;;3.83;1.83;;;9.30;99.90;;;;;;5058548;28;20312;-62
2022/11/18 01:57:16;;;;;;;4.80;1.40;;;9.30;99.90;;;;;;5059077;28;20024;-62
2022/11/18 01:59:45;;;;;;;6.15;1.70;;;9.30;99.90;;;;;;5058641;28;20325;-62
2022/11/18 02:02:13;;;;;;;2.65;1.50;;;9.30;99.90;;;;;;5058381;28;20108;-62
2022/11/18 02:04:43;;;;;;;2.78;1.65;;;9.20;99.90;;;;;;5058086;28;20155;-63
2022/11/18 02:07:09;;;;;;;3.88;1.52;;;9.20;99.90;;;;;;5059414;28;20455;-62
2022/11/18 02:09:37;;;;;;;7.20;1.48;;;9.20;99.90;;;;;;5058968;28;20068;-62
2022/11/18 02:12:04;;;;;;;3.47;1.60;;;9.10;99.90;;;;;;5058246;28;20041;-62
2022/11/18 02:14:34;;;;;;;3.47;1.42;;;9.10;99.90;;;;;;5041480;28;20033;-63
2022/11/18 02:17:21;;;;;;;3.28;1.52;;;9.10;99.90;;;;;;5058841;28;20028;-63
2022/11/18 02:19:46;;;;;;;2.95;1.70;;;9.00;99.90;;;;;;5058825;28;20057;-62
2022/11/18 02:22:50;;;;;;;2.72;1.40;;;9.00;99.90;;;;;;5058719;28;20465;-62
2022/11/18 02:25:42;;;;;;;4.50;1.52;;;8.90;99.90;;;;;;5058750;28;20029;-62
2022/11/18 02:28:46;;;;;;;5.13;1.58;;;8.90;99.90;;;;;;5058030;28;20107;-62
2022/11/18 02:31:24;;;;;;;7.53;1.60;;;8.90;99.90;;;;;;5057323;28;20033;-62
2022/11/18 02:33:58;;;;;;;3.55;1.40;;;8.90;99.90;;;;;;5057819;28;20302;-62
2022/11/18 02:36:38;;;;;;;3.30;1.30;;;8.90;99.90;;;;;;5057811;28;20041;-60
2022/11/18 02:39:15;;;;;;;4.28;1.55;;;8.80;99.90;;;;;;5058766;28;20024;-60
2022/11/18 02:41:43;;;;;;;4.75;1.42;;;8.80;99.90;;;;;;5058458;28;20029;-60
2022/11/18 02:44:13;;;;;;;4.60;1.55;;;8.80;99.90;;;;;;5058555;28;20341;-61
2022/11/18 02:46:41;;;;;;;3.67;1.40;;;8.80;99.90;;;;;;5058542;28;20025;-61
2022/11/18 02:49:15;;;;;;;3.95;1.67;;;8.70;99.90;;;;;;5058530;28;20086;-61
2022/11/18 02:51:43;;;;;;;3.63;1.40;;;8.70;99.90;;;;;;5058299;28;20356;-61
2022/11/18 02:54:12;;;;;;;5.55;1.60;;;8.70;99.90;;;;;;5041159;28;20083;-61
2022/11/18 02:56:38;;;;;;;3.72;1.40;;;8.60;99.90;;;;;;5058080;28;20033;-60
2022/11/18 02:59:05;;;;;;;2.50;1.38;;;8.60;99.90;;;;;;5040787;28;20324;-61
2022/11/18 03:01:34;;;;;;;5.03;1.52;;;8.60;99.90;;;;;;5058072;28;20025;-62
2022/11/18 03:04:00;;;;;;;2.50;1.60;;;8.60;99.90;;;;;;5040543;28;20408;-61
2022/11/18 03:06:38;;;;;;;5.57;1.60;;;8.60;99.90;;;;;;5057392;28;20036;-62
2022/11/18 03:09:30;;;;;;;4.95;1.45;;;8.50;99.90;;;;;;5057911;28;20028;-61
2022/11/18 03:12:11;;;;;;;3.20;1.50;;;8.50;99.90;;;;;;5056588;28;20040;-62
2022/11/18 03:14:37;;;;;;;5.22;1.60;;;8.50;99.90;;;;;;5057769;28;20078;-61
2022/11/18 03:17:11;;;;;;;4.75;1.58;;;8.40;99.90;;;;;;5057675;28;20063;-61
2022/11/18 03:20:14;;;;;;;3.78;1.60;;;8.40;99.90;;;;;;5056899;28;20392;-61
2022/11/18 03:22:54;;;;;;;3.97;1.55;;;8.40;99.90;;;;;;5052819;28;20059;-61
2022/11/18 03:25:43;;;;;;;5.15;1.80;;;8.30;99.90;;;;;;5057620;28;20025;-61
2022/11/18 03:28:27;;;;;;;6.50;2.28;;;8.30;99.90;;;;;;5040210;28;20025;-61
2022/11/18 03:31:18;;;;;;;3.30;1.58;;;8.30;99.90;;;;;;5057452;28;20120;-61
2022/11/18 03:33:51;;;;;;;5.28;1.50;;;8.30;99.90;;;;;;5057176;28;20128;-62
2022/11/18 03:36:21;;;;;;;3.42;1.77;;;8.30;99.90;;;;;;5056541;28;20415;-62
2022/11/18 03:38:55;;;;;;;3.33;1.77;;;8.20;99.90;;;;;;5057304;28;20309;-62
2022/11/18 03:41:24;;;;;;;5.93;1.90;;;8.20;99.90;;;;;;5057333;28;20052;-61
2022/11/18 03:44:00;;;;;;;3.85;1.80;;;8.20;99.90;;;;;;5056401;28;20288;-61
2022/11/18 03:46:35;;;;;;;4.45;1.88;;;8.20;99.90;;;;;;5057541;28;20304;-61
2022/11/18 03:49:04;;;;;;;3.20;1.73;;;8.20;99.90;;;;;;5057093;28;20040;-62
2022/11/18 03:51:43;;;;;;;5.85;1.80;;;8.20;99.90;;;;;;5056561;28;20385;-62
2022/11/18 03:54:23;;;;;;;5.18;1.92;;;8.20;99.90;;;;;;5056576;28;20265;-62
2022/11/18 03:56:56;;;;;;;5.93;2.20;;;8.10;99.90;;;;;;5057032;28;20404;-61
2022/11/18 03:59:32;;;;;;;4.07;2.25;;;8.10;99.90;;;;;;5056514;28;20112;-62
2022/11/18 04:02:12;;;;;;;2.20;1.70;;;8.10;99.90;;;;;;5056752;28;20051;-62
2022/11/18 04:04:39;;;;;;;4.00;1.90;;;8.10;99.90;;;;;;5056727;28;20040;-62
2022/11/18 04:07:23;;;;;;;3.25;1.80;;;8.10;99.90;;;;;;5056900;28;20124;-62
2022/11/18 04:10:02;;;;;;;3.97;2.00;;;8.10;99.90;;;;;;5057025;28;20396;-62
2022/11/18 04:12:32;;;;;;;4.35;2.08;;;8.10;99.90;;;;;;5056032;28;20029;-62
2022/11/18 04:14:58;;;;;;;3.33;2.03;;;8.10;99.90;;;;;;5055921;28;20407;-62
2022/11/18 04:17:27;;;;;;;4.85;2.47;;;8.10;99.90;;;;;;5056694;28;20041;-62
2022/11/18 04:19:53;;;;;;;4.65;2.08;;;8.10;99.90;;;;;;5056765;28;20021;-62
2022/11/18 04:22:19;;;;;;;5.43;2.10;;;8.10;99.90;;;;;;5055933;28;20300;-62
2022/11/18 04:24:45;;;;;;;7.60;2.20;;;8.10;99.90;;;;;;5055957;28;20028;-62
2022/11/18 04:27:11;;;;;;;7.50;2.85;;;8.00;99.90;;;;;;5055962;28;20077;-62
2022/11/18 04:29:37;;;;;;;6.35;2.20;;;8.10;99.90;;;;;;5056768;28;20029;-62
2022/11/18 04:32:04;;;;;;;4.72;2.28;;;8.00;99.90;;;;;;5056555;28;20128;-61
2022/11/18 04:34:30;;;;;;;5.20;2.70;;;8.10;99.90;;;;;;5055800;28;20040;-61
2022/11/18 04:36:57;;;;;;;9.13;2.35;;;8.10;99.90;;;;;;5055837;28;20039;-61
2022/11/18 04:39:22;;;;;;;4.75;2.42;;;8.10;99.90;;;;;;5039397;28;20033;-61
2022/11/18 04:41:54;;;;;;;4.13;2.60;;;8.10;99.90;;;;;;5056577;28;20112;-61
2022/11/18 04:44:27;;;;;;;7.10;2.30;;;8.10;99.90;;;;;;5056687;28;20025;-61
2022/11/18 04:46:55;;;;;;;6.68;2.67;;;8.00;99.90;;;;;;5056972;28;20029;-61
2022/11/18 04:49:22;;;;;;;6.65;2.42;;;8.00;99.90;;;;;;5055602;28;20044;-61
2022/11/18 04:51:48;;;;;;;5.90;2.58;;;8.00;99.90;;;;;;5055716;28;20120;-61
2022/11/18 04:54:15;;;;;;;7.35;2.83;;;8.00;99.90;;;;;;5056887;28;20033;-61
2022/11/18 04:56:41;;;;;;;6.28;2.63;;;8.00;99.90;;;;;;5060130;28;20048;-62
2022/11/18 04:59:07;;;;;;;4.82;2.45;;;8.00;99.90;;;;;;5059517;28;20117;-61
2022/11/18 05:01:33;;;;;;;4.97;2.70;;;8.00;99.90;;;;;;5059462;28;20067;-61
2022/11/18 05:04:03;;;;;;;6.70;2.50;;;8.00;99.90;;;;;;5060031;28;20052;-61
2022/11/18 05:06:29;;;;;;;5.65;2.53;;;8.00;99.90;;;;;;5060309;28;20105;-61
2022/11/18 05:08:59;;;;;;;5.13;2.65;;;8.00;99.90;;;;;;5042785;28;20332;-61
2022/11/18 05:14:11;;;;;;;6.28;2.60;;;8.00;99.90;;;;;;5060189;28;20032;-61
2022/11/18 05:16:37;;;;;;;7.15;2.90;;;7.90;99.90;;;;;;5058968;28;20099;-61
2022/11/18 05:19:05;;;;;;;7.03;2.80;;;7.90;99.90;;;;;;5060030;28;20400;-61
2022/11/18 05:21:31;;;;;;;5.65;2.80;;;7.90;99.90;;;;;;5059157;28;20029;-61
2022/11/18 05:24:00;;;;;;;7.28;2.78;;;7.80;99.90;;;;;;5042671;28;20116;-61
2022/11/18 05:26:27;;;;;;;6.95;2.80;;;7.80;99.90;;;;;;5059874;28;20040;-61
2022/11/18 05:28:53;;;;;;;4.38;2.92;;;7.80;99.90;;;;;;5059097;28;20102;-61
2022/11/18 05:31:19;;;;;;;5.85;2.63;;;7.90;99.90;;;;;;5059985;28;20041;-61
2022/11/18 05:33:45;;;;;;;6.15;2.78;;;7.80;99.90;;;;;;5058981;28;20033;-63
2022/11/18 05:36:16;;;;;;;4.50;2.80;;;7.80;99.90;;;;;;5058725;28;20036;-62
2022/11/18 05:38:42;;;;;;;5.68;2.92;;;7.80;99.90;;;;;;5059033;28;20389;-61
2022/11/18 05:41:09;;;;;;;6.97;2.80;;;7.80;99.90;;;;;;5060169;28;20090;-61
2022/11/18 05:43:36;;;;;;;3.65;2.85;;;7.70;99.90;;;;;;5058746;28;20056;-61
2022/11/18 05:46:02;;;;;;;7.55;3.10;;;7.70;99.90;;;;;;5059514;28;20229;-61
2022/11/18 05:48:29;;;;;;;6.03;2.70;;;7.70;99.90;;;;;;5059697;28;20400;-61
2022/11/18 05:50:55;;;;;;;5.03;2.78;;;7.70;99.90;;;;;;5058616;28;20021;-61
2022/11/18 05:53:23;;;;;;;6.07;3.10;;;7.70;99.90;;;;;;5059438;28;20041;-61
2022/11/18 05:56:27;;;;;;;5.45;3.17;;;7.70;99.90;;;;;;5058408;28;20021;-61
2022/11/18 05:58:53;;;;;;;4.93;2.58;;;7.70;99.90;;;;;;5058869;28;20044;-61
2022/11/18 06:01:24;;;;;;;4.93;2.75;;;7.70;99.90;;;;;;5059626;28;20036;-61
2022/11/18 06:03:50;;;;;;;6.05;3.08;;;7.70;99.90;;;;;;5059197;28;20068;-61
2022/11/18 06:06:20;;;;;;;5.50;2.50;;;7.80;99.90;;;;;;5058467;28;20122;-62
2022/11/18 06:09:05;;;;;;;7.97;2.40;;;7.70;99.90;;;;;;5059011;28;20033;-62
2022/11/18 06:11:37;;;;;;;5.45;2.50;;;7.80;99.90;;;;;;5058978;28;20385;-61
2022/11/18 06:14:12;;;;;;;4.43;2.53;;;7.80;99.90;;;;;;5059115;28;20036;-61
2022/11/18 06:16:42;;;;;;;5.15;2.58;;;7.80;99.90;;;;;;5058941;28;20393;-62
2022/11/18 06:19:08;;;;;;;5.88;2.20;;;7.80;99.90;;;;;;5058309;28;20113;-62
2022/11/18 06:21:34;;;;;;;8.30;2.50;;;7.90;99.90;;;;;;5059369;28;20103;-61
2022/11/18 06:24:01;;;;;;;6.63;2.72;;;7.90;99.90;;;;;;5058025;28;20044;-61
2022/11/18 06:26:27;;;;;;;6.00;2.50;;;7.90;99.90;;;;;;5058085;28;20037;-61
2022/11/18 06:28:54;;;;;;;5.07;2.28;;;7.90;99.90;;;;;;5058737;28;20052;-61
2022/11/18 06:31:20;;;;;;;9.13;2.75;;;7.80;99.90;;;;;;5058674;28;20123;-61
2022/11/18 06:33:46;;;;;;;5.72;2.47;;;7.90;99.90;;;;;;5058705;28;20128;-62
2022/11/18 06:36:12;;;;;;;6.38;2.00;;;7.90;99.90;;;;;;5058344;28;20111;-61
2022/11/18 06:38:38;;;;;;;8.68;2.70;;;7.90;99.90;;;;;;5057673;28;20068;-61
2022/11/18 06:41:04;;;;;;;5.40;2.17;;;7.90;99.90;;;;;;5058947;28;20404;-63
2022/11/18 06:43:40;;;;;;;6.25;2.10;;;7.90;99.90;;;;;;5058242;28;20270;-61
2022/11/18 06:48:54;;;;;;;8.70;2.22;;;7.80;99.90;;;;;;5058114;28;20033;-61
2022/11/18 06:51:20;;;;;;;9.43;2.20;;;7.80;99.90;;;;;;5040936;28;20128;-62
2022/11/18 06:53:46;;;;;;;12.90;2.72;;;7.80;99.90;;;;;;5040700;28;20131;-62
2022/11/18 06:56:13;;;;;;;7.90;2.70;;;7.80;99.90;;;;;;5058032;28;20434;-61
2022/11/18 06:58:40;;;;;;;5.15;2.13;;;7.70;99.90;;;;;;5057239;28;20061;-62
2022/11/18 07:01:13;;;;;;;6.60;2.40;;;7.70;99.90;;;;;;5057774;28;20033;-62
2022/11/18 07:03:40;;;;;;;5.93;2.20;;;7.70;99.90;;;;;;5057816;28;20370;-62
2022/11/18 07:06:07;;;;;;;7.28;2.47;;;7.70;99.90;;;;;;5057011;28;20087;-61
2022/11/18 07:08:37;;;;;;;8.38;2.30;;;7.70;99.90;;;;;;5057083;28;20363;-62
2022/11/18 07:11:05;;;;;;;5.28;2.42;;;7.70;99.90;;;;;;5024150;28;20041;-62
2022/11/18 07:13:34;;;;;;;6.25;2.13;;;7.70;99.90;;;;;;5057044;28;20025;-62
2022/11/18 07:16:08;;;;;;;9.05;3.05;;;7.70;99.90;;;;;;5057785;28;20288;-61
2022/11/18 07:18:37;;;;;;;6.18;2.70;;;7.70;99.90;;;;;;5056915;28;20040;-63
2022/11/18 07:21:05;;;;;;;8.20;2.80;;;7.70;99.90;;;;;;5040148;28;20031;-61
2022/11/18 07:23:32;;;;;;;5.22;2.42;;;7.70;99.90;;;;;;5056898;28;20098;-62
2022/11/18 07:25:58;;;;;;;6.40;2.63;;;7.70;99.90;;;;;;5056829;28;20033;-62
2022/11/18 07:28:25;;;;;;;7.30;2.42;;;7.80;99.90;;;;;;5040085;28;20051;-61
2022/11/18 07:30:51;;;;;;;7.57;2.42;;;7.80;99.90;;;;;;5039933;28;20079;-61
2022/11/18 07:33:17;;;;;;;7.88;2.50;;;7.90;99.90;;;;;;5057407;28;20071;-62
2022/11/18 07:35:43;;;;;;;6.28;2.38;;;7.90;99.90;;;;;;5057982;28;20121;-62
2022/11/18 07:38:09;;;;;;;5.68;2.30;;;7.90;99.90;;;;;;5056744;28;20072;-62
2022/11/18 07:40:35;;;;;;;6.53;2.08;;;7.90;99.90;;;;;;5057364;28;20033;-62
2022/11/18 07:43:00;;;;;;;9.10;2.75;;;7.90;99.90;;;;;;5056497;28;20040;-62
2022/11/18 07:45:26;;;;;;;8.05;2.25;;;8.00;99.90;;;;;;5023941;28;20032;-59
2022/11/18 07:47:52;;;;;;;8.63;2.67;;;8.00;99.90;;;;;;5056503;28;20064;-61
2022/11/18 07:50:18;;;;;;;7.63;2.78;;;8.20;99.90;;;;;;5057175;28;20028;-61
2022/11/18 07:52:44;;;;;;;6.53;1.70;;;8.20;99.90;;;;;;5056685;28;20397;-61
2022/11/18 07:55:09;;;;;;;11.15;2.60;;;8.20;99.90;;;;;;5056415;28;20044;-61
2022/11/18 07:57:35;;;;;;;6.90;2.35;;;8.30;99.90;;;;;;5056356;28;20100;-62
2022/11/18 08:00:03;;;;;;;6.05;2.60;;;8.40;99.90;;;;;;5039754;28;20401;-62
2022/11/18 08:02:37;;;;;;;12.65;2.60;;;8.40;99.90;;;;;;5056335;28;20184;-62
2022/11/18 08:05:03;;;;;;;10.52;2.70;;;8.40;99.90;;;;;;5056230;28;20112;-62
2022/11/18 08:07:29;;;;;;;8.70;2.47;;;8.60;99.90;;;;;;5056844;28;20037;-63
2022/11/18 08:09:55;;;;;;;7.60;2.38;;;8.60;99.90;;;;;;5039705;28;20115;-61
2022/11/18 08:12:21;;;;;;;7.93;2.38;;;8.70;99.90;;;;;;5056816;28;20029;-61
2022/11/18 08:14:47;;;;;;;7.05;2.30;;;8.60;99.90;;;;;;5055965;28;20033;-61
2022/11/18 08:17:12;;;;;;;7.32;2.25;;;8.70;99.90;;;;;;5056737;28;20040;-62
2022/11/18 08:19:38;;;;;;;7.38;2.03;;;8.70;99.90;;;;;;5056769;28;20021;-62
2022/11/18 08:22:04;;;;;;;5.25;2.55;;;8.80;99.90;;;;;;5055983;28;20154;-62
2022/11/18 08:24:29;;;;;;;4.57;2.08;;;8.80;99.90;;;;;;5056016;28;20112;-62
2022/11/18 08:26:55;;;;;;;6.53;2.10;;;8.70;99.90;;;;;;5039828;28;20035;-62
2022/11/18 08:29:21;;;;;;;8.35;2.17;;;8.70;99.90;;;;;;5056007;28;20116;-62
2022/11/18 08:31:47;;;;;;;5.90;2.30;;;8.80;99.90;;;;;;5057142;28;20107;-62
2022/11/18 08:34:14;;;;;;;5.25;2.08;;;8.80;99.90;;;;;;5055980;28;20072;-62
2022/11/18 08:36:40;;;;;;;7.07;2.30;;;8.90;99.90;;;;;;5056494;28;20036;-62
2022/11/18 08:39:10;;;;;;;8.95;2.50;;;8.90;99.90;;;;;;5055895;28;20401;-61
2022/11/18 08:41:41;;;;;;;9.60;2.30;;;8.90;99.90;;;;;;5056870;28;20049;-62
2022/11/18 08:44:11;;;;;;;6.95;2.35;;;8.90;99.90;;;;;;5055832;28;20090;-62
2022/11/18 08:46:37;;;;;;;5.40;2.00;;;9.00;99.90;;;;;;5056489;28;20086;-62
2022/11/18 08:49:03;;;;;;;7.97;2.15;;;9.10;99.90;;;;;;5056398;28;20397;-61
2022/11/18 08:51:29;;;;;;;4.18;1.65;;;9.10;99.90;;;;;;5039065;28;20037;-61
2022/11/18 08:53:55;;;;;;;9.30;2.50;;;9.10;99.90;;;;;;5055760;28;20048;-65
2022/11/18 08:56:23;;;;;;;7.80;2.40;;;9.20;99.90;;;;;;5055785;28;20083;-62
2022/11/18 08:58:49;;;;;;;4.90;1.65;;;9.30;99.90;;;;;;5055662;28;20399;-62
2022/11/18 09:01:15;;;;;;;5.05;2.05;;;9.30;99.90;;;;;;5022819;28;20397;-62
2022/11/18 09:03:41;;;;;;;8.00;2.10;;;9.30;99.90;;;;;;5038859;28;20113;-62
2022/11/18 09:06:10;;;;;;;6.47;2.35;;;9.30;99.90;;;;;;5022646;28;20171;-62
2022/11/18 09:08:36;;;;;;;7.72;2.15;;;9.30;99.90;;;;;;5055820;28;20037;-62
2022/11/18 09:11:17;;;;;;;5.57;1.92;;;9.30;99.90;;;;;;5056093;28;20044;-62
2022/11/18 09:13:42;;;;;;;8.63;2.30;;;9.50;99.90;;;;;;5055623;28;20047;-62
2022/11/18 09:16:08;;;;;;;6.97;2.42;;;9.50;99.90;;;;;;5056688;28;20034;-62
2022/11/18 09:18:35;;;;;;;12.40;2.53;;;9.50;99.90;;;;;;5038996;28;20095;-61
2022/11/18 09:21:06;;;;;;;5.55;2.10;;;9.60;99.90;;;;;;5038963;28;20033;-61
2022/11/18 09:23:34;;;;;;;7.93;2.03;;;9.60;99.90;;;;;;5056600;28;20405;-61
2022/11/18 09:26:05;;;;;;;5.88;2.00;;;9.60;99.90;;;;;;5039003;28;20282;-60
2022/11/18 09:28:31;;;;;;;7.10;2.30;;;9.50;99.90;;;;;;5055763;28;20112;-61
2022/11/18 09:30:57;;;;;;;6.68;2.08;;;9.60;99.90;;;;;;5055606;28;20067;-61
2022/11/18 09:33:23;;;;;;;8.75;2.33;;;9.70;99.90;;;;;;5055573;28;20111;-61
2022/11/18 09:35:49;;;;;;;13.68;2.97;;;9.80;99.90;;;;;;5039468;28;20108;-61
2022/11/18 09:38:15;;;;;;;6.70;2.28;;;9.80;99.90;;;;;;5056199;28;20033;-61
2022/11/18 09:41:04;;;;;;;7.65;2.30;;;9.90;99.90;;;;;;5056116;28;20277;-61
2022/11/18 09:44:00;;;;;;;6.60;2.10;;;9.90;99.90;;;;;;5059121;28;20029;-61
2022/11/18 09:46:26;;;;;;;6.55;2.35;;;9.90;99.90;;;;;;5059118;28;20029;-62
2022/11/18 09:49:14;;;;;;;8.55;2.50;;;9.80;99.90;;;;;;5042316;28;20036;-62
2022/11/18 09:51:46;;;;;;;5.38;1.90;;;9.90;99.90;;;;;;5059730;28;20040;-62
2022/11/18 09:54:19;;;;;;;;;;;9.90;99.90;;;;;;5059250;28;20098;-62
2022/11/18 09:56:47;;;;;;;7.72;2.10;;;9.90;99.90;;;;;;5059436;28;19999;-61
2022/11/18 09:59:16;;;;;;;6.90;2.40;;;10.00;99.90;;;;;;5059535;28;20117;-61
2022/11/18 10:01:43;;;;;;;5.85;2.65;;;9.90;99.90;;;;;;5059479;28;20025;-61
2022/11/18 10:04:18;;;;;;;10.85;2.35;;;9.90;99.90;;;;;;5058443;28;20060;-62
2022/11/18 10:06:45;;;;;;;8.02;2.38;;;9.90;99.90;;;;;;5058710;28;20029;-62
2022/11/18 10:09:21;;;;;;;5.85;2.20;;;10.10;99.90;;;;;;5058670;28;20400;-62
2022/11/18 10:12:26;;;;;;;6.15;2.70;;;10.00;99.90;;;;;;5059281;28;20036;-61
2022/11/18 10:15:04;;;;;;;7.88;2.47;;;10.00;99.90;;;;;;5005040;28;20452;-62
2022/11/18 10:17:42;;;;;;;8.10;2.60;;;9.90;99.90;;;;;;5037865;28;20360;-62
2022/11/18 10:20:25;;;;;;;10.70;2.80;;;9.90;99.90;;;;;;5051644;28;20039;-61
2022/11/18 10:22:56;;;;;;;;;;;10.00;99.90;;;;;;5059380;28;20324;-61
2022/11/18 10:25:23;;;;;;;5.70;2.30;;;10.00;99.90;;;;;;5058999;28;20254;-61
2022/11/18 10:27:49;;;;;;;6.40;2.40;;;10.10;99.90;;;;;;5059387;28;20415;-60
2022/11/18 10:30:22;;;;;;;7.05;2.92;;;10.20;99.90;;;;;;5058762;28;20110;-60
2022/11/18 10:33:00;;;;;;;5.82;2.20;;;10.40;99.90;;;;;;5058206;28;20057;-60
2022/11/18 10:36:17;;;;;;;7.63;2.20;;;10.30;99.90;;;;;;5058355;28;20112;-60
2022/11/18 10:38:44;;;;;;;6.05;2.33;;;10.30;99.90;;;;;;5058695;28;20167;-61
2022/11/18 10:41:16;;;;;;;7.90;2.53;;;10.30;99.90;;;;;;5057935;28;20029;-63
2022/11/18 10:43:49;;;;;;;8.25;2.95;;;10.10;99.90;;;;;;5058709;28;20108;-61
2022/11/18 10:46:26;;;;;;;5.97;2.38;;;10.10;99.90;;;;;;5059242;28;20029;-62
2022/11/18 10:49:12;;;;;;;8.48;2.42;;;10.20;99.90;;;;;;5042683;28;20037;-61
2022/11/18 10:51:44;;;;;;;4.47;2.20;;;10.30;99.90;;;;;;5058447;28;20028;-61
2022/11/18 10:54:17;;;;;;;5.43;2.05;;;10.30;99.90;;;;;;5058337;28;20033;-60
2022/11/18 10:56:57;;;;;;;6.30;2.17;;;10.40;99.90;;;;;;5058243;28;20086;-60
2022/11/18 10:59:31;;;;;;;5.78;2.40;;;10.50;99.90;;;;;;5057909;28;20401;-62
2022/11/18 11:01:58;;;;;;;6.75;2.70;;;10.50;99.90;;;;;;5057613;28;20043;-61
2022/11/18 11:04:26;;;;;;;5.97;2.88;;;10.40;99.90;;;;;;5058060;28;20037;-60
2022/11/18 11:06:52;;;;;;;6.53;2.85;;;10.40;99.90;;;;;;5024723;28;20036;-63
2022/11/18 11:09:28;;;;;;;5.72;3.20;;;10.40;99.90;;;;;;5057404;28;20428;-61
2022/11/18 11:12:11;;;;;;;7.43;3.20;;;10.40;99.90;;;;;;5040557;28;20040;-61
2022/11/18 11:14:49;;;;;;;;;;;10.30;99.90;;;;;;5058972;28;20085;-61
2022/11/18 11:17:25;;;;;;;10.43;2.40;;;10.40;99.90;;;;;;5057802;28;19919;-61
2022/11/18 11:20:04;;;;;;;6.80;2.80;;;10.40;99.90;;;;;;5057856;28;20025;-61
2022/11/18 11:22:30;;;;;;;6.93;2.60;;;10.30;99.90;;;;;;5057028;28;20297;-61
2022/11/18 11:24:56;;;;;;;9.10;2.50;;;10.30;99.90;;;;;;5040795;28;20033;-61
2022/11/18 11:28:04;;;;;;;4.50;2.38;;;10.30;99.90;;;;;;5056805;28;20450;-61
2022/11/18 11:30:37;;;;;;;7.47;2.65;;;10.30;99.90;;;;;;5056920;28;20029;-65
2022/11/18 11:33:03;;;;;;;5.78;2.30;;;10.50;99.90;;;;;;5057564;28;20036;-61
2022/11/18 11:36:10;;;;;;;9.25;2.13;;;10.60;99.90;;;;;;5056856;28;20058;-61
2022/11/18 11:38:58;;;;;;;5.85;2.28;;;10.70;99.90;;;;;;5043699;28;20408;-61
2022/11/18 11:41:53;;;;;;;4.43;2.03;;;10.50;99.90;;;;;;5057619;28;20039;-60
2022/11/18 11:44:47;;;;;;;8.48;2.55;;;10.50;99.90;;;;;;5057531;28;20040;-61
2022/11/18 11:47:45;;;;;;;5.70;2.20;;;10.40;99.90;;;;;;5057394;28;20028;-60
2022/11/18 11:50:52;;;;;;;6.35;2.10;;;10.20;99.90;;;;;;5057961;28;20365;-61
2022/11/18 11:53:37;;;;;;;4.43;2.20;;;10.10;99.90;;;;;;5057323;28;20029;-61
2022/11/18 11:56:32;;;;;;;6.40;2.72;;;10.10;99.90;;;;;;5057368;28;20033;-61
2022/11/18 11:59:05;;;;;;;14.48;2.80;;;10.20;99.90;;;;;;5047882;28;20111;-61
2022/11/18 12:01:57;;;;;;;6.85;2.70;;;10.20;99.90;;;;;;5056461;28;20083;-61
2022/11/18 12:04:42;;;;;;;7.93;2.45;;;10.20;99.90;;;;;;5056238;28;20045;-60
2022/11/18 12:07:43;;;;;;;7.65;2.70;;;10.30;99.90;;;;;;5057110;28;20033;-61
2022/11/18 12:10:15;;;;;;;8.27;2.47;;;10.30;99.90;;;;;;5051989;28;20336;-61
2022/11/18 12:13:11;;;;;;;4.72;2.08;;;10.30;99.90;;;;;;5056151;28;20135;-62
2022/11/18 12:16:15;;;;;;;7.40;2.45;;;10.30;99.90;;;;;;5055183;28;20322;-61
2022/11/18 12:18:42;;;;;;;8.38;2.25;;;10.30;99.90;;;;;;5056128;28;20032;-61
2022/11/18 12:21:46;;;;;;;9.68;2.60;;;10.30;99.90;;;;;;5056917;28;20068;-60
2022/11/18 12:24:38;;;;;;;6.18;2.30;;;10.50;99.90;;;;;;5056785;28;20072;-61
2022/11/18 12:27:12;;;;;;;6.47;2.65;;;10.50;99.90;;;;;;5039648;28;20047;-62
2022/11/18 12:29:47;;;;;;;6.35;2.42;;;10.60;99.90;;;;;;5056859;28;20044;-64
2022/11/18 12:32:41;;;;;;;6.03;2.45;;;10.60;99.90;;;;;;5055960;28;20089;-61
2022/11/18 12:35:24;;;;;;;6.60;2.40;;;10.60;99.90;;;;;;5056676;28;20095;-62
2022/11/18 12:37:50;;;;;;;8.40;2.63;;;10.70;99.90;;;;;;5055865;28;20339;-60
2022/11/18 12:40:44;;;;;;;5.85;2.10;;;10.80;99.90;;;;;;5055858;28;20040;-62
2022/11/18 12:46:29;;;;;;;6.90;2.25;;;10.60;99.90;;;;;;5056791;28;20040;-60
2022/11/18 12:48:55;;;;;;;6.68;2.55;;;10.50;99.90;;;;;;5056503;28;20029;-61
2022/11/18 12:51:21;;;;;;;5.70;2.47;;;10.50;99.90;;;;;;5056224;28;20393;-61
2022/11/18 12:53:53;;;;;;;6.13;2.30;;;10.50;99.90;;;;;;5055802;28;20037;-61
2022/11/18 12:56:25;;;;;;;6.15;2.22;;;10.50;99.90;;;;;;5056434;28;20041;-60
2022/11/18 12:58:53;;;;;;;8.43;2.50;;;10.40;99.90;;;;;;5056549;28;20400;-61
2022/11/18 13:01:37;;;;;;;7.07;2.30;;;10.50;99.90;;;;;;5055691;28;20300;-60
2022/11/18 13:04:18;;;;;;;6.93;2.63;;;10.50;99.90;;;;;;5038963;28;20069;-61
2022/11/18 13:06:46;;;;;;;5.53;2.33;;;10.50;99.90;;;;;;5056548;28;20090;-60
2022/11/18 13:09:22;;;;;;;5.57;2.33;;;10.50;99.90;;;;;;5056456;28;20039;-61
2022/11/18 13:11:56;;;;;;;7.40;2.25;;;10.50;99.90;;;;;;5056484;28;20297;-61
2022/11/18 13:20:32;;;;;;;7.35;2.60;;;10.20;99.90;;;;;;5059703;28;20040;-60
2022/11/18 13:26:17;;;;;;;8.95;2.63;;;10.30;99.90;;;;;;5059468;28;20135;-61
2022/11/18 13:28:52;;;;;;;6.95;2.58;;;10.50;99.90;;;;;;5059527;28;20051;-62
2022/11/18 13:31:49;;;;;;;5.53;2.42;;;10.40;99.90;;;;;;5042728;28;20056;-62
2022/11/18 13:34:21;;;;;;;4.97;2.70;;;10.30;99.90;;;;;;5059268;28;20025;-61
2022/11/18 13:36:49;;;;;;;5.95;2.75;;;10.40;99.90;;;;;;5059841;28;20052;-62
2022/11/18 13:39:27;;;;;;;5.63;2.47;;;10.30;99.90;;;;;;5059889;28;20024;-61
2022/11/18 13:42:05;;;;;;;6.50;2.75;;;10.30;99.90;;;;;;5042530;28;20025;-61
2022/11/18 13:44:33;;;;;;;10.43;2.72;;;10.50;99.90;;;;;;5059779;28;20087;-61